»·PEaware :: SWA4109 KBUR-KLAS

SWA4109 :: KBUR-KLAS

FLIGHT INFORMATION

Flight Status: Arrived
Operator:
Southwest Airlines
More flights by this operator :: More flights under this callsign
Pilot: Cody B. (17747)
Aircraft: BOEING 737-800
(B738)
More flights by this aircraft type
Origin: KBUR Bob Hope-Burbank
United States
Destination: KLAS McCarran Intl
United States
More flights between these airports :: More routes between these airports
Route: SLAPP1 MISEN KEPEC6
File this flight plan on PilotEdge
Remarks: PBN / A1B1C1D1S1S2 DOF / 181006 REG / N8301J CODE / AB5ADE OPR / SWA PER / C RMK / TCAS SIMBRIEF
Altitude:
(Current/Filed)
27,000ft
Speed:
(Current/Filed)
442kts
Departed: 06-Oct-18 09:56 AM
Arrived: 06-Oct-18 10:37 AM
Distance/Time
Traveled:
194nm/0:41
Distance/Time
To Go:
Arrived

Flight Plot

Page will automatically refresh every two minutes.

Flight plan parsing failed; only flown route is shown


Map Options




Map Legend


Flown Route
Filed Route
Departure Airport
Arrival Airport
Navaid (VOR, NDB)
Fix

Horizontal Profiles

Position Reports

Time Latitude Longitude Heading Altitude Ground
Speed
06-Oct-18 09:09 34.196844 -118.351952 179 785ft 0kts
06-Oct-18 09:10 34.196844 -118.351952 179 785ft 0kts
06-Oct-18 09:11 34.196844 -118.351952 179 785ft 0kts
06-Oct-18 09:12 34.196844 -118.351952 179 785ft 0kts
06-Oct-18 09:13 34.196844 -118.351952 179 785ft 0kts
06-Oct-18 09:14 34.196844 -118.351952 179 785ft 0kts
06-Oct-18 09:15 34.196844 -118.351952 179 785ft 0kts
06-Oct-18 09:16 34.196844 -118.351952 179 785ft 0kts
06-Oct-18 09:17 34.196844 -118.351952 179 785ft 0kts
06-Oct-18 09:18 34.196844 -118.351952 179 785ft 0kts
06-Oct-18 09:19 34.196844 -118.351952 179 785ft 0kts
06-Oct-18 09:20 34.196844 -118.351952 179 785ft 0kts
06-Oct-18 09:21 34.196844 -118.351952 179 785ft 0kts
06-Oct-18 09:22 34.196844 -118.351952 179 785ft 0kts
06-Oct-18 09:23 34.196844 -118.351952 179 785ft 0kts
06-Oct-18 09:24 34.196844 -118.351952 179 785ft 0kts
06-Oct-18 09:25 34.196844 -118.351952 179 785ft 0kts
06-Oct-18 09:26 34.196844 -118.351952 179 785ft 0kts
06-Oct-18 09:27 34.196844 -118.351952 179 785ft 0kts
06-Oct-18 09:28 34.196844 -118.351952 179 785ft 0kts
06-Oct-18 09:29 34.196844 -118.351952 179 785ft 0kts
06-Oct-18 09:30 34.196844 -118.351952 179 785ft 0kts
06-Oct-18 09:31 34.196844 -118.351952 179 785ft 0kts
06-Oct-18 09:32 34.196844 -118.351952 179 785ft 0kts
06-Oct-18 09:33 34.196844 -118.351952 179 785ft 0kts
06-Oct-18 09:34 34.196844 -118.351952 179 785ft 0kts
06-Oct-18 09:35 34.196844 -118.351952 179 785ft 0kts
06-Oct-18 09:36 34.196844 -118.351952 179 785ft 0kts
06-Oct-18 09:37 34.196844 -118.351952 179 785ft 0kts
06-Oct-18 09:38 34.196844 -118.351952 179 785ft 0kts
06-Oct-18 09:39 34.196844 -118.351952 179 785ft 0kts
06-Oct-18 09:40 34.196844 -118.351952 179 785ft 0kts
06-Oct-18 09:41 34.196844 -118.351952 179 785ft 0kts
06-Oct-18 09:42 34.196844 -118.351952 179 785ft 0kts
06-Oct-18 09:43 34.196845 -118.351952 179 785ft 0kts
06-Oct-18 09:44 34.197098 -118.351930 209 785ft 2kts
06-Oct-18 09:45 34.197180 -118.351682 271 785ft 0kts
06-Oct-18 09:46 34.197180 -118.351682 271 785ft 0kts
06-Oct-18 09:47 34.197180 -118.351682 271 785ft 0kts
06-Oct-18 09:48 34.197181 -118.351781 271 785ft 1kts
06-Oct-18 09:49 34.197246 -118.353825 287 785ft 11kts
06-Oct-18 09:50 34.200897 -118.355934 347 785ft 21kts
06-Oct-18 09:51 34.206764 -118.357555 346 785ft 22kts
06-Oct-18 09:52 34.211385 -118.358884 331 785ft 11kts
06-Oct-18 09:53 34.211568 -118.359059 313 785ft 0kts
06-Oct-18 09:54 34.211568 -118.359059 313 785ft 0kts
06-Oct-18 09:55 34.211568 -118.359059 313 785ft 0kts
06-Oct-18 09:56 34.211568 -118.359059 313 785ft 0kts
06-Oct-18 09:57 34.211705 -118.360101 215 785ft 5kts
06-Oct-18 09:58 34.201945 -118.357587 167 785ft 135kts
06-Oct-18 09:59 34.161828 -118.363705 219 2902ft 178kts
06-Oct-18 10:00 34.120956 -118.406304 221 4252ft 265kts
06-Oct-18 10:01 34.069191 -118.466422 255 7380ft 281kts
06-Oct-18 10:02 34.110752 -118.522560 349 9008ft 273kts
06-Oct-18 10:03 34.180258 -118.496349 27 10502ft 306kts
06-Oct-18 10:04 34.254063 -118.440671 25 13195ft 330kts
06-Oct-18 10:05 34.335028 -118.389412 14 16015ft 337kts
06-Oct-18 10:06 34.423227 -118.350667 14 18589ft 349kts
06-Oct-18 10:07 34.507669 -118.289058 33 20266ft 370kts
06-Oct-18 10:08 34.587460 -118.208327 32 22392ft 383kts
06-Oct-18 10:09 34.660410 -118.111316 57 24359ft 414kts
06-Oct-18 10:10 34.691340 -117.973270 75 26099ft 438kts
06-Oct-18 10:11 34.700786 -117.823046 81 26925ft 460kts
06-Oct-18 10:12 34.708499 -117.663931 83 26951ft 486kts
06-Oct-18 10:13 34.716421 -117.499798 74 26962ft 485kts
06-Oct-18 10:14 34.756974 -117.347535 66 26978ft 479kts
06-Oct-18 10:15 34.797787 -117.193765 67 26958ft 484kts
06-Oct-18 10:16 34.838329 -117.039997 67 26914ft 500kts
06-Oct-18 10:17 34.880914 -116.877324 68 26902ft 512kts
06-Oct-18 10:18 34.923589 -116.715111 61 26894ft 491kts
06-Oct-18 10:19 35.001073 -116.581252 49 26906ft 490kts
06-Oct-18 10:20 35.076716 -116.449261 52 26882ft 467kts
06-Oct-18 10:21 35.141683 -116.349249 38 25614ft 448kts
06-Oct-18 10:22 35.228664 -116.246075 43 24717ft 440kts
06-Oct-18 10:23 35.314426 -116.138057 43 24690ft 444kts
06-Oct-18 10:24 35.400619 -116.029269 43 24470ft 448kts
06-Oct-18 10:25 35.485450 -115.921884 44 22148ft 430kts
06-Oct-18 10:26 35.567221 -115.818049 45 19424ft 421kts
06-Oct-18 10:27 35.646552 -115.717029 45 17055ft 399kts
06-Oct-18 10:28 35.720512 -115.622831 42 15065ft 376kts
06-Oct-18 10:29 35.775281 -115.523905 70 13108ft 347kts
06-Oct-18 10:30 35.805643 -115.418160 70 11085ft 314kts
06-Oct-18 10:31 35.832708 -115.321646 71 9114ft 297kts
06-Oct-18 10:32 35.877358 -115.245997 22 8045ft 267kts
06-Oct-18 10:33 35.944021 -115.258109 316 8044ft 250kts
06-Oct-18 10:34 35.989262 -115.322577 324 7266ft 251kts
06-Oct-18 10:35 36.046716 -115.324792 38 6375ft 201kts
06-Oct-18 10:36 36.074253 -115.271394 87 4648ft 182kts
06-Oct-18 10:37 36.073482 -115.218060 90 3317ft 142kts
06-Oct-18 10:38 36.073570 -115.171460 89 2390ft 136kts
06-Oct-18 10:39 36.074225 -115.139703 64 2189ft 24kts
06-Oct-18 10:40 36.076930 -115.137922 0 2189ft 15kts
06-Oct-18 10:41 36.077269 -115.137935 357 2189ft 0kts
06-Oct-18 10:42 36.077269 -115.137935 357 2189ft 0kts
06-Oct-18 10:43 36.078233 -115.138364 283 2189ft 6kts
06-Oct-18 10:44 36.078263 -115.142581 270 2189ft 13kts
06-Oct-18 10:45 36.078468 -115.146521 275 2189ft 13kts
06-Oct-18 10:46 36.080695 -115.149070 335 2189ft 13kts
06-Oct-18 10:47 36.082430 -115.149592 10 2189ft 7kts
06-Oct-18 10:48 36.082885 -115.149779 333 2189ft 1kts
06-Oct-18 10:49 36.082812 -115.150037 267 2189ft 2kts
06-Oct-18 10:50 36.082783 -115.150365 261 2189ft 0kts
06-Oct-18 10:51 36.082783 -115.150365 261 2189ft 0kts
06-Oct-18 10:52 36.082783 -115.150365 261 2189ft 0kts
06-Oct-18 10:53 36.082783 -115.150365 261 2189ft 0kts

Navigation Log

Ident Type
Flight plan parsing failed, navigation log unavailable